Daisinmaru No.11 — JK5352 — position and weather

sailwx.info

Track history (hours):
 
Tides and Currents Weather Stations Pressure Air Temp Water Temp Dewpoint Dewpoint Depression Visibility Wind Speed Wind Dir Waves Ship Positions

Daisinmaru No.11

Last reported at 2015-May-27 07:33 UTC. Time now 2015-May-27 09:55 UTC.
Position N 35°35' E 139°47'.

Length 52 m; draft 5.2 m.

Type: Cargo ship. MMSI: 431000667.

Date/timePositionNaut miles runAvg speedWind from/ knotsBaromVisibWave heightAir tempDewpointWater temp
2015-May-27 07:33N 35°35' E 139°47'3 0.9
2015-May-27 04:33N 35°33' E 139°50'10 9.7
2015-May-27 03:34N 35°27' E 139°59'0 0.1
2015-May-27 02:33N 35°27' E 139°59'0 0.0
2015-May-27 01:33N 35°27' E 139°59'0 0.0
2015-May-27 00:33N 35°27' E 139°59'0 0.0
2015-May-26 08:15N 35°27' E 139°59'1 0.7
2015-May-26 07:33N 35°28' E 139°60'0 0.0
2015-May-26 06:33N 35°28' E 139°60'0 0.0
2015-May-26 05:33N 35°28' E 139°60'0 0.0
2015-May-26 04:33N 35°28' E 139°60'0 0.0
2015-May-26 03:33N 35°28' E 139°60'7 7.3
2015-May-26 02:33N 35°28' E 139°51'8 8.2
2015-May-26 01:33N 35°27' E 139°41'2 2.0
2015-May-26 00:33N 35°28' E 139°39'0 0.0
2015-May-25 23:33N 35°28' E 139°39'0 0.0
2015-May-25 07:33N 35°28' E 139°39'0 0.0
2015-May-25 06:33N 35°28' E 139°39'0 0.0
2015-May-25 05:33N 35°28' E 139°39'0 0.0
2015-May-25 02:32N 35°28' E 139°39'0 0.0
2015-May-25 01:33N 35°28' E 139°39'2 2.5
2015-May-25 00:33N 35°27' E 139°41'1010.4
2015-May-24 23:33N 35°29' E 139°54'5 5.3
2015-May-24 22:33N 35°28' E 139°60'  
2015-May-19 02:22N 35°27' E 139°60'3 3.7
2015-May-19 01:33N 35°30' E 140°01'5 4.9
2015-May-19 00:33N 35°32' E 140°06'0 0.0
2015-May-18 23:34N 35°32' E 140°06'0 0.0
2015-May-18 08:33N 35°32' E 140°06'7 6.7
2015-May-18 07:33N 35°32' E 139°58'10 9.5
2015-May-18 06:33N 35°30' E 139°46'3 3.0
2015-May-18 05:33N 35°29' E 139°43'0 0.0
2015-May-18 04:33N 35°29' E 139°43'0 0.0
2015-May-18 03:33N 35°29' E 139°43'0 0.0
2015-May-18 02:33N 35°29' E 139°43'6 6.1
2015-May-18 01:33N 35°30' E 139°50'8 8.0
2015-May-18 00:33N 35°28' E 139°60'  
Track history (hours):
 
Tides and Currents Weather Stations Pressure Air Temp Water Temp Dewpoint Dewpoint Depression Visibility Wind Speed Wind Dir Waves Ship Positions

Daisinmaru No.11

Last reported at 2015-May-27 07:33 UTC. Time now 2015-May-27 09:55 UTC.
Position N 35°35' E 139°47'.

Length 52 m; draft 5.2 m.

Type: Cargo ship. MMSI: 431000667.

Date/timePositionNaut miles runAvg speedWind from/ knotsBaromVisibWave heightAir tempDewpointWater temp
2015-May-27 07:33N 35°35' E 139°47'3 0.9
2015-May-27 04:33N 35°33' E 139°50'10 9.7
2015-May-27 03:34N 35°27' E 139°59'0 0.1
2015-May-27 02:33N 35°27' E 139°59'0 0.0
2015-May-27 01:33N 35°27' E 139°59'0 0.0
2015-May-27 00:33N 35°27' E 139°59'0 0.0
2015-May-26 08:15N 35°27' E 139°59'1 0.7
2015-May-26 07:33N 35°28' E 139°60'0 0.0
2015-May-26 06:33N 35°28' E 139°60'0 0.0
2015-May-26 05:33N 35°28' E 139°60'0 0.0
2015-May-26 04:33N 35°28' E 139°60'0 0.0
2015-May-26 03:33N 35°28' E 139°60'7 7.3
2015-May-26 02:33N 35°28' E 139°51'8 8.2
2015-May-26 01:33N 35°27' E 139°41'2 2.0
2015-May-26 00:33N 35°28' E 139°39'0 0.0
2015-May-25 23:33N 35°28' E 139°39'0 0.0
2015-May-25 07:33N 35°28' E 139°39'0 0.0
2015-May-25 06:33N 35°28' E 139°39'0 0.0
2015-May-25 05:33N 35°28' E 139°39'0 0.0
2015-May-25 02:32N 35°28' E 139°39'0 0.0
2015-May-25 01:33N 35°28' E 139°39'2 2.5
2015-May-25 00:33N 35°27' E 139°41'1010.4
2015-May-24 23:33N 35°29' E 139°54'5 5.3
2015-May-24 22:33N 35°28' E 139°60'  
2015-May-19 02:22N 35°27' E 139°60'3 3.7
2015-May-19 01:33N 35°30' E 140°01'5 4.9
2015-May-19 00:33N 35°32' E 140°06'0 0.0
2015-May-18 23:34N 35°32' E 140°06'0 0.0
2015-May-18 08:33N 35°32' E 140°06'7 6.7
2015-May-18 07:33N 35°32' E 139°58'10 9.5
2015-May-18 06:33N 35°30' E 139°46'3 3.0
2015-May-18 05:33N 35°29' E 139°43'0 0.0
2015-May-18 04:33N 35°29' E 139°43'0 0.0
2015-May-18 03:33N 35°29' E 139°43'0 0.0
2015-May-18 02:33N 35°29' E 139°43'6 6.1
2015-May-18 01:33N 35°30' E 139°50'8 8.0
2015-May-18 00:33N 35°28' E 139°60'  

Dump ship's entire track history